Time;durP1;ratioP1;P1;durP2;ratioP2;P2;SDS_P1;SDS_P2;PMS_P1;PMS_P2;Temp;Humidity;BMP_temperature;BMP_pressure;BME280_temperature;BME280_humidity;BME280_pressure;Samples;Min_cycle;Max_cycle;Signal;HPM_P1;HPM_P2
2022/08/01 00:00:43;;;;;;;2.00;0.80;;;;;;;;;;4973745;28;20476;-79
2022/08/01 00:03:09;;;;;;;1.13;1.13;;;;;;;;;;4973747;28;20201;-80
2022/08/01 00:05:35;;;;;;;1.27;1.27;;;;;;;;;;4973632;28;20918;-80
2022/08/01 00:08:01;;;;;;;3.40;1.13;;;;;;;;;;4973806;28;20437;-80
2022/08/01 00:10:27;;;;;;;1.20;1.20;;;;;;;;;;4973962;28;20440;-80
2022/08/01 00:12:53;;;;;;;1.33;1.20;;;;;;;;;;4973664;28;20446;-80
2022/08/01 00:15:19;;;;;;;0.97;0.97;;;;;;;;;;4973998;28;20500;-81
2022/08/01 00:17:45;;;;;;;4.67;1.40;;;;;;;;;;4974044;28;20491;-79
2022/08/01 00:20:12;;;;;;;3.07;1.70;;;;;;;;;;4972940;28;20425;-81
2022/08/01 00:22:38;;;;;;;4.03;1.70;;;;;;;;;;4973854;28;20414;-80
2022/08/01 00:25:05;;;;;;;1.43;1.33;;;;;;;;;;4973627;28;20809;-81
2022/08/01 00:27:32;;;;;;;1.40;1.40;;;;;;;;;;4973726;28;20453;-80
2022/08/01 00:29:58;;;;;;;1.50;1.50;;;;;;;;;;4973643;28;20434;-79
2022/08/01 00:32:24;;;;;;;7.50;2.50;;;;;;;;;;4973366;28;20581;-81
2022/08/01 00:34:50;;;;;;;3.60;1.10;;;;;;;;;;4973438;28;20437;-80
2022/08/01 00:37:16;;;;;;;1.50;1.40;;;;;;;;;;4973313;28;20902;-79
2022/08/01 00:39:42;;;;;;;15.30;2.80;;;;;;;;;;4973511;28;20426;-81
2022/08/01 00:42:09;;;;;;;1.43;1.33;;;;;;;;;;4973502;28;20794;-80
2022/08/01 00:44:35;;;;;;;2.30;1.00;;;;;;;;;;4973887;28;20434;-81
2022/08/01 00:47:01;;;;;;;3.23;1.50;;;;;;;;;;4973296;28;20450;-80
2022/08/01 00:49:27;;;;;;;1.90;1.80;;;;;;;;;;4973236;28;20461;-81
2022/08/01 00:51:53;;;;;;;4.97;1.63;;;;;;;;;;4973199;28;20457;-79
2022/08/01 00:54:19;;;;;;;1.80;1.70;;;;;;;;;;4973230;28;20465;-78
2022/08/01 00:56:45;;;;;;;5.40;1.53;;;;;;;;;;4973340;28;20568;-81
2022/08/01 00:59:12;;;;;;;2.07;1.97;;;;;;;;;;4972183;28;20858;-81
2022/08/01 01:01:38;;;;;;;2.33;1.90;;;;;;;;;;4973418;28;20426;-80
2022/08/01 01:04:04;;;;;;;1.90;1.80;;;;;;;;;;4972964;28;20436;-80
2022/08/01 01:06:47;;;;;;;1.90;1.80;;;;;;;;;;4975074;28;20520;-81
2022/08/01 01:09:22;;;;;;;1.70;1.57;;;;;;;;;;4977081;28;20417;-80
2022/08/01 01:12:03;;;;;;;3.67;1.50;;;;;;;;;;4974805;28;20426;-78
2022/08/01 01:14:46;;;;;;;1.77;1.67;;;;;;;;;;4961592;28;20708;-81
2022/08/01 01:17:15;;;;;;;1.70;1.70;;;;;;;;;;4977288;28;20473;-81
2022/08/01 01:19:43;;;;;;;3.20;1.80;;;;;;;;;;4976873;28;20517;-81
2022/08/01 01:22:16;;;;;;;1.83;1.57;;;;;;;;;;4976263;28;20430;-81
2022/08/01 01:24:54;;;;;;;1.50;1.40;;;;;;;;;;4976842;28;20469;-80
2022/08/01 01:27:23;;;;;;;3.60;1.80;;;;;;;;;;4976479;28;20438;-80
2022/08/01 01:29:52;;;;;;;1.50;1.50;;;;;;;;;;4976785;28;20437;-81
2022/08/01 01:32:20;;;;;;;1.90;1.80;;;;;;;;;;4976092;28;20434;-77
2022/08/01 01:34:48;;;;;;;2.27;2.20;;;;;;;;;;4976556;28;20432;-81
2022/08/01 01:37:20;;;;;;;1.50;1.50;;;;;;;;;;4976385;28;20978;-81
2022/08/01 01:39:50;;;;;;;2.13;2.10;;;;;;;;;;4976487;28;20987;-80
2022/08/01 01:42:17;;;;;;;2.63;2.30;;;;;;;;;;4976456;28;20517;-80
2022/08/01 01:44:45;;;;;;;1.87;1.87;;;;;;;;;;4976933;28;20414;-80
2022/08/01 01:47:13;;;;;;;1.90;1.90;;;;;;;;;;4976549;28;20513;-78
2022/08/01 01:49:40;;;;;;;1.50;1.50;;;;;;;;;;4976174;28;20972;-78
2022/08/01 01:52:07;;;;;;;2.23;1.87;;;;;;;;;;4975801;28;20765;-80
2022/08/01 01:54:37;;;;;;;2.23;1.80;;;;;;;;;;4976232;28;21061;-79
2022/08/01 01:57:05;;;;;;;1.80;1.80;;;;;;;;;;4976383;28;20477;-80
2022/08/01 01:59:32;;;;;;;1.73;1.73;;;;;;;;;;4989119;28;20935;-82
2022/08/01 02:02:00;;;;;;;1.17;1.17;;;;;;;;;;4975603;28;20975;-79
2022/08/01 02:04:27;;;;;;;1.57;1.57;;;;;;;;;;4975776;28;20434;-81
2022/08/01 02:06:53;;;;;;;1.50;1.50;;;;;;;;;;4976484;28;20509;-82
2022/08/01 02:09:21;;;;;;;1.30;1.30;;;;;;;;;;4976030;28;20954;-78
2022/08/01 02:11:48;;;;;;;5.37;1.33;;;;;;;;;;4975803;28;20525;-82
2022/08/01 02:14:15;;;;;;;3.47;1.90;;;;;;;;;;4975975;28;20438;-80
2022/08/01 02:16:44;;;;;;;2.00;1.90;;;;;;;;;;4975605;28;20532;-81
2022/08/01 02:19:10;;;;;;;2.00;2.00;;;;;;;;;;4975074;28;20453;-81
2022/08/01 02:21:39;;;;;;;3.67;2.30;;;;;;;;;;4976047;28;20492;-80
2022/08/01 02:24:14;;;;;;;1.67;1.60;;;;;;;;;;4987696;28;20815;-82
2022/08/01 02:26:41;;;;;;;2.10;1.90;;;;;;;;;;4975899;28;20528;-80
2022/08/01 02:29:11;;;;;;;6.03;2.00;;;;;;;;;;4975831;28;20821;-81
2022/08/01 02:31:39;;;;;;;7.43;1.73;;;;;;;;;;4975757;28;20428;-79
2022/08/01 02:34:07;;;;;;;1.83;1.73;;;;;;;;;;4973674;28;20512;-79
2022/08/01 02:36:35;;;;;;;1.70;1.70;;;;;;;;;;4975610;28;20470;-79
2022/08/01 02:39:08;;;;;;;1.70;1.60;;;;;;;;;;4975738;28;20525;-82
2022/08/01 02:41:36;;;;;;;5.10;1.43;;;;;;;;;;4975669;28;20435;-81
2022/08/01 02:44:05;;;;;;;2.37;1.27;;;;;;;;;;4988798;28;20493;-80
2022/08/01 02:46:36;;;;;;;1.23;1.23;;;;;;;;;;4975249;28;20466;-80
2022/08/01 02:49:04;;;;;;;1.27;1.27;;;;;;;;;;4975165;28;20485;-79
2022/08/01 02:51:31;;;;;;;2.80;1.93;;;;;;;;;;4975255;28;20497;-81
2022/08/01 02:53:58;;;;;;;6.53;1.40;;;;;;;;;;4987490;28;20438;-81
2022/08/01 02:56:34;;;;;;;3.70;1.80;;;;;;;;;;4971790;28;20532;-81
2022/08/01 02:59:00;;;;;;;1.37;1.37;;;;;;;;;;4974233;28;20477;-80
2022/08/01 03:01:26;;;;;;;1.40;1.40;;;;;;;;;;4989356;28;20521;-81
2022/08/01 03:03:52;;;;;;;2.53;1.73;;;;;;;;;;4974147;28;20449;-81
2022/08/01 03:06:19;;;;;;;1.53;1.53;;;;;;;;;;4974029;28;20426;-81
2022/08/01 03:08:45;;;;;;;1.37;1.37;;;;;;;;;;4974766;28;20438;-81
2022/08/01 03:11:13;;;;;;;1.60;1.60;;;;;;;;;;4974176;28;20430;-82
2022/08/01 03:13:40;;;;;;;2.00;1.90;;;;;;;;;;4974577;28;20448;-82
2022/08/01 03:16:07;;;;;;;1.40;1.40;;;;;;;;;;4977322;28;20427;-81
2022/08/01 03:18:33;;;;;;;1.53;1.53;;;;;;;;;;4974441;28;20446;-81
2022/08/01 03:21:00;;;;;;;2.53;1.33;;;;;;;;;;4974220;28;20434;-81
2022/08/01 03:23:27;;;;;;;1.40;1.40;;;;;;;;;;4973950;28;20453;-78
2022/08/01 03:25:53;;;;;;;1.87;1.80;;;;;;;;;;4970327;28;20485;-80
2022/08/01 03:28:21;;;;;;;1.67;1.57;;;;;;;;;;4973802;28;20508;-81
2022/08/01 03:30:47;;;;;;;1.60;1.47;;;;;;;;;;4974321;28;20958;-80
2022/08/01 03:33:13;;;;;;;2.33;1.37;;;;;;;;;;4973381;28;20449;-80
2022/08/01 03:35:43;;;;;;;2.00;1.70;;;;;;;;;;4974185;28;20422;-80
2022/08/01 03:38:10;;;;;;;2.87;2.00;;;;;;;;;;4973493;28;20970;-80
2022/08/01 03:40:36;;;;;;;4.63;1.93;;;;;;;;;;4973901;28;20450;-78
2022/08/01 03:43:04;;;;;;;1.63;1.63;;;;;;;;;;4973304;28;20503;-81
2022/08/01 03:45:35;;;;;;;1.53;1.40;;;;;;;;;;4974335;28;20434;-79
2022/08/01 03:48:13;;;;;;;2.00;1.50;;;;;;;;;;4973452;28;20525;-80
2022/08/01 03:50:42;;;;;;;1.90;1.80;;;;;;;;;;4988614;28;20496;-80
2022/08/01 03:53:09;;;;;;;1.70;1.63;;;;;;;;;;4973361;28;20797;-81
2022/08/01 03:55:37;;;;;;;5.30;1.70;;;;;;;;;;4973553;28;20477;-79
2022/08/01 03:58:04;;;;;;;5.40;1.70;;;;;;;;;;4972755;28;20543;-80
2022/08/01 04:00:30;;;;;;;2.50;2.40;;;;;;;;;;4973273;28;20426;-80
2022/08/01 04:02:56;;;;;;;2.03;1.93;;;;;;;;;;4973432;28;20426;-81
2022/08/01 04:05:22;;;;;;;1.67;1.67;;;;;;;;;;4973595;28;20421;-79
2022/08/01 04:07:55;;;;;;;3.17;2.17;;;;;;;;;;4972837;28;20438;-81
2022/08/01 04:10:25;;;;;;;2.40;2.20;;;;;;;;;;4974893;28;20791;-79
2022/08/01 04:12:51;;;;;;;2.30;2.10;;;;;;;;;;4984065;28;20441;-81
2022/08/01 04:15:17;;;;;;;4.10;2.50;;;;;;;;;;4973937;28;20426;-80
2022/08/01 04:17:43;;;;;;;3.30;2.47;;;;;;;;;;4973565;28;20842;-79
2022/08/01 04:20:10;;;;;;;9.07;2.20;;;;;;;;;;4973400;28;20421;-80
2022/08/01 04:22:36;;;;;;;2.37;2.03;;;;;;;;;;4971956;28;20477;-81
2022/08/01 04:25:05;;;;;;;2.70;2.00;;;;;;;;;;4972789;28;20436;-79
2022/08/01 04:27:33;;;;;;;3.00;1.63;;;;;;;;;;4973262;28;20466;-80
2022/08/01 04:29:59;;;;;;;4.73;2.20;;;;;;;;;;4986501;28;20434;-80
2022/08/01 04:32:26;;;;;;;5.23;2.13;;;;;;;;;;4971953;28;20837;-76
2022/08/01 04:34:55;;;;;;;2.43;2.10;;;;;;;;;;4970967;28;20985;-80
2022/08/01 04:37:23;;;;;;;1.87;1.87;;;;;;;;;;4973533;28;20535;-80
2022/08/01 04:39:51;;;;;;;2.27;2.17;;;;;;;;;;4973105;28;20448;-81
2022/08/01 04:42:18;;;;;;;2.77;2.60;;;;;;;;;;4968280;28;20937;-81
2022/08/01 04:44:44;;;;;;;2.87;1.97;;;;;;;;;;4974634;28;20936;-81
2022/08/01 04:47:10;;;;;;;3.03;2.93;;;;;;;;;;4975981;28;20460;-82
2022/08/01 04:49:37;;;;;;;2.53;2.37;;;;;;;;;;4977009;28;20520;-80
2022/08/01 04:52:03;;;;;;;2.93;2.63;;;;;;;;;;4976515;28;20919;-80
2022/08/01 04:54:29;;;;;;;5.03;2.70;;;;;;;;;;4976472;28;20478;-78
2022/08/01 04:56:59;;;;;;;7.13;2.90;;;;;;;;;;4977160;28;20492;-80
2022/08/01 04:59:40;;;;;;;7.10;3.10;;;;;;;;;;4977249;28;20484;-80
2022/08/01 05:02:10;;;;;;;4.53;2.60;;;;;;;;;;4976493;28;20410;-79
2022/08/01 05:04:37;;;;;;;2.77;2.67;;;;;;;;;;4989916;28;20445;-81
2022/08/01 05:07:03;;;;;;;4.97;2.93;;;;;;;;;;4977135;28;20910;-77
2022/08/01 05:09:30;;;;;;;2.90;2.80;;;;;;;;;;4976991;28;20425;-83
2022/08/01 05:11:58;;;;;;;3.13;2.80;;;;;;;;;;4976636;28;20998;-81
2022/08/01 05:14:24;;;;;;;3.37;3.20;;;;;;;;;;4976452;28;20429;-75
2022/08/01 05:16:50;;;;;;;6.30;2.83;;;;;;;;;;4992166;28;20555;-82
2022/08/01 05:19:16;;;;;;;3.73;3.50;;;;;;;;;;4991218;28;20514;-81
2022/08/01 05:21:42;;;;;;;2.50;2.40;;;;;;;;;;4976441;28;20429;-73
2022/08/01 05:24:08;;;;;;;4.70;3.00;;;;;;;;;;4976226;28;20528;-73
2022/08/01 05:26:34;;;;;;;5.10;3.00;;;;;;;;;;4975651;28;20426;-81
2022/08/01 05:29:00;;;;;;;2.40;2.40;;;;;;;;;;4976516;28;20524;-80
2022/08/01 05:31:26;;;;;;;3.40;2.33;;;;;;;;;;4976104;28;20529;-73
2022/08/01 05:33:52;;;;;;;6.00;2.60;;;;;;;;;;4990569;28;20957;-73
2022/08/01 05:36:18;;;;;;;4.37;2.10;;;;;;;;;;4975466;28;20474;-73
2022/08/01 05:38:44;;;;;;;2.40;2.30;;;;;;;;;;4976214;28;20792;-73
2022/08/01 05:41:11;;;;;;;2.83;2.63;;;;;;;;;;4975155;28;20433;-82
2022/08/01 05:43:36;;;;;;;3.30;3.00;;;;;;;;;;4976296;28;20422;-74
2022/08/01 05:46:03;;;;;;;2.90;2.80;;;;;;;;;;4976408;28;20755;-80
2022/08/01 05:48:30;;;;;;;2.93;2.80;;;;;;;;;;4975454;28;20438;-81
2022/08/01 05:50:56;;;;;;;2.90;2.70;;;;;;;;;;4975468;28;20434;-81
2022/08/01 05:53:22;;;;;;;2.53;2.40;;;;;;;;;;4974609;28;20434;-73
2022/08/01 05:55:48;;;;;;;3.30;3.17;;;;;;;;;;4975898;28;20544;-73
2022/08/01 05:58:14;;;;;;;2.60;2.50;;;;;;;;;;4976070;28;20568;-73
2022/08/01 06:00:40;;;;;;;2.10;2.00;;;;;;;;;;4974546;28;20422;-73
2022/08/01 06:03:06;;;;;;;2.63;2.53;;;;;;;;;;4975948;28;20458;-73
2022/08/01 06:05:32;;;;;;;4.13;2.20;;;;;;;;;;4975453;28;20449;-73
2022/08/01 06:07:58;;;;;;;1.90;1.80;;;;;;;;;;4975787;28;20453;-73
2022/08/01 06:10:24;;;;;;;2.30;2.30;;;;;;;;;;4975599;28;20410;-74
2022/08/01 06:12:50;;;;;;;2.27;2.07;;;;;;;;;;4975902;28;20910;-73
2022/08/01 06:15:16;;;;;;;2.37;2.37;;;;;;;;;;4975643;28;20499;-73
2022/08/01 06:17:42;;;;;;;2.33;2.33;;;;;;;;;;4975695;28;20488;-73
2022/08/01 06:20:08;;;;;;;2.83;1.60;;;;;;;;;;4975034;28;20446;-73
2022/08/01 06:22:34;;;;;;;5.70;2.20;;;;;;;;;;4975000;28;20437;-73
2022/08/01 06:25:00;;;;;;;2.57;2.47;;;;;;;;;;4976004;28;20423;-74
2022/08/01 06:27:26;;;;;;;2.70;2.50;;;;;;;;;;4975547;28;20426;-74
2022/08/01 06:29:56;;;;;;;2.50;2.33;;;;;;;;;;4975355;28;20781;-74
2022/08/01 06:32:22;;;;;;;2.27;2.17;;;;;;;;;;4974701;28;20510;-74
2022/08/01 06:34:48;;;;;;;2.80;2.60;;;;;;;;;;4975544;28;20418;-74
2022/08/01 06:37:15;;;;;;;2.80;2.50;;;;;;;;;;4975369;28;20486;-73
2022/08/01 06:39:41;;;;;;;4.83;2.33;;;;;;;;;;4975545;28;20464;-75
2022/08/01 06:42:07;;;;;;;2.80;2.60;;;;;;;;;;4974453;28;20919;-75
2022/08/01 06:44:33;;;;;;;3.80;2.33;;;;;;;;;;4975426;28;20461;-74
2022/08/01 06:46:59;;;;;;;2.30;1.93;;;;;;;;;;4974897;28;20833;-75
2022/08/01 06:49:25;;;;;;;2.07;2.07;;;;;;;;;;4974125;28;20422;-74
2022/08/01 06:51:51;;;;;;;2.37;2.27;;;;;;;;;;4974155;28;20496;-75
2022/08/01 06:54:17;;;;;;;3.30;3.20;;;;;;;;;;4975123;28;20498;-74
2022/08/01 06:56:43;;;;;;;2.60;2.57;;;;;;;;;;4975295;28;20950;-74
2022/08/01 06:59:09;;;;;;;7.17;2.33;;;;;;;;;;4974869;28;20521;-75
2022/08/01 07:01:35;;;;;;;2.10;2.10;;;;;;;;;;4974238;28;20430;-74
2022/08/01 07:04:02;;;;;;;3.03;2.83;;;;;;;;;;4973401;28;20513;-74
2022/08/01 07:06:28;;;;;;;2.47;2.37;;;;;;;;;;4975229;28;20521;-73
2022/08/01 07:08:54;;;;;;;15.43;6.43;;;;;;;;;;4974698;28;20425;-74
2022/08/01 07:11:20;;;;;;;2.40;2.30;;;;;;;;;;4974809;28;20426;-74
2022/08/01 07:13:47;;;;;;;2.73;2.40;;;;;;;;;;4974342;28;20425;-75
2022/08/01 07:16:13;;;;;;;2.80;2.60;;;;;;;;;;4973640;28;20421;-74
2022/08/01 07:18:39;;;;;;;4.00;2.27;;;;;;;;;;4973873;28;20448;-75
2022/08/01 07:21:05;;;;;;;2.00;2.00;;;;;;;;;;4974745;28;20509;-74
2022/08/01 07:23:31;;;;;;;3.23;2.60;;;;;;;;;;4974074;28;20418;-74
2022/08/01 07:25:57;;;;;;;7.37;2.53;;;;;;;;;;4974742;28;20425;-74
2022/08/01 07:28:23;;;;;;;2.27;2.17;;;;;;;;;;4974107;28;20438;-74
2022/08/01 07:30:49;;;;;;;2.17;2.17;;;;;;;;;;4974560;28;20846;-74
2022/08/01 07:33:15;;;;;;;4.40;2.60;;;;;;;;;;4973682;28;20438;-74
2022/08/01 07:35:41;;;;;;;3.60;2.10;;;;;;;;;;4974412;28;20183;-75
2022/08/01 07:38:07;;;;;;;2.67;2.57;;;;;;;;;;4974208;28;20536;-74
2022/08/01 07:40:33;;;;;;;3.67;2.33;;;;;;;;;;4973925;28;20461;-75
2022/08/01 07:42:59;;;;;;;10.07;2.13;;;;;;;;;;4974300;28;20521;-74
2022/08/01 07:45:26;;;;;;;3.33;3.13;;;;;;;;;;4973868;28;20433;-75
2022/08/01 07:47:52;;;;;;;2.67;2.47;;;;;;;;;;4973846;28;20438;-74
2022/08/01 07:50:18;;;;;;;2.27;2.27;;;;;;;;;;4973216;28;20426;-74
2022/08/01 07:52:44;;;;;;;2.07;2.07;;;;;;;;;;4989108;28;20426;-75
2022/08/01 07:55:11;;;;;;;1.87;1.87;;;;;;;;;;4973759;28;20472;-74
2022/08/01 07:57:37;;;;;;;1.70;1.70;;;;;;;;;;4974312;28;20507;-75
2022/08/01 08:00:04;;;;;;;7.33;2.37;;;;;;;;;;4973237;28;20993;-75
2022/08/01 08:02:30;;;;;;;2.47;2.47;;;;;;;;;;4973746;28;20579;-74
2022/08/01 08:04:56;;;;;;;1.10;1.10;;;;;;;;;;4973320;28;20791;-73
2022/08/01 08:07:22;;;;;;;2.13;1.93;;;;;;;;;;4974162;28;20437;-75
2022/08/01 08:09:48;;;;;;;1.53;1.53;;;;;;;;;;4973261;28;20453;-74
2022/08/01 08:12:14;;;;;;;1.90;1.83;;;;;;;;;;4973280;28;21013;-73
2022/08/01 08:14:40;;;;;;;2.10;2.00;;;;;;;;;;4973678;28;20448;-73
2022/08/01 08:17:06;;;;;;;1.47;1.47;;;;;;;;;;4987997;28;20493;-74
2022/08/01 08:19:33;;;;;;;2.40;2.10;;;;;;;;;;4973719;28;20946;-73
2022/08/01 08:22:02;;;;;;;1.70;1.60;;;;;;;;;;4972481;28;20438;-75
2022/08/01 08:24:28;;;;;;;2.00;1.90;;;;;;;;;;4973975;28;20509;-73
2022/08/01 08:26:55;;;;;;;4.33;1.80;;;;;;;;;;4972854;28;20525;-74
2022/08/01 08:29:22;;;;;;;2.00;2.00;;;;;;;;;;4973990;28;20468;-74
2022/08/01 08:31:48;;;;;;;2.30;2.10;;;;;;;;;;4972986;28;20509;-73
2022/08/01 08:34:14;;;;;;;1.73;1.73;;;;;;;;;;4973450;28;20720;-75
2022/08/01 08:36:40;;;;;;;2.10;2.07;;;;;;;;;;4973375;28;20552;-74
2022/08/01 08:39:06;;;;;;;2.47;2.43;;;;;;;;;;4972950;28;20438;-76
2022/08/01 08:41:33;;;;;;;2.23;2.13;;;;;;;;;;4971809;28;20434;-75
2022/08/01 08:44:01;;;;;;;2.40;2.30;;;;;;;;;;4973383;28;20442;-73
2022/08/01 08:46:27;;;;;;;2.43;2.30;;;;;;;;;;4973924;28;20988;-78
2022/08/01 08:48:53;;;;;;;2.70;2.60;;;;;;;;;;4972864;28;20434;-74
2022/08/01 08:51:20;;;;;;;3.03;2.93;;;;;;;;;;4973715;28;20437;-74
2022/08/01 08:53:46;;;;;;;2.63;2.50;;;;;;;;;;4973437;28;20421;-75
2022/08/01 08:56:14;;;;;;;2.50;2.40;;;;;;;;;;4973426;28;20426;-74
2022/08/01 08:58:41;;;;;;;2.90;2.70;;;;;;;;;;4973711;28;20774;-75
2022/08/01 09:01:08;;;;;;;2.83;2.07;;;;;;;;;;4973648;28;20497;-81
2022/08/01 09:03:35;;;;;;;2.23;2.23;;;;;;;;;;4972325;28;20806;-77
2022/08/01 09:06:01;;;;;;;2.37;2.37;;;;;;;;;;4973809;28;20418;-75
2022/08/01 09:08:27;;;;;;;5.13;2.50;;;;;;;;;;4973701;28;20409;-75
2022/08/01 09:10:53;;;;;;;5.03;1.73;;;;;;;;;;4973654;28;20517;-74
2022/08/01 09:13:19;;;;;;;2.27;2.27;;;;;;;;;;4973411;28;20473;-74
2022/08/01 09:15:50;;;;;;;2.70;2.70;;;;;;;;;;4972320;28;20444;-76
2022/08/01 09:18:35;;;;;;;2.40;2.30;;;;;;;;;;4972698;28;20481;-74
2022/08/01 09:21:19;;;;;;;2.47;2.47;;;;;;;;;;4973401;28;20518;-74
2022/08/01 09:23:49;;;;;;;6.13;2.03;;;;;;;;;;4972933;28;20537;-73
2022/08/01 09:26:16;;;;;;;6.07;2.73;;;;;;;;;;4973597;28;20437;-75
2022/08/01 09:28:43;;;;;;;3.30;2.90;;;;;;;;;;4977015;28;20433;-75
2022/08/01 09:31:14;;;;;;;2.30;2.20;;;;;;;;;;4977152;28;20468;-74
2022/08/01 09:33:49;;;;;;;3.90;3.27;;;;;;;;;;4976316;28;20441;-74
2022/08/01 09:36:15;;;;;;;2.87;2.67;;;;;;;;;;4971396;28;20434;-74
2022/08/01 09:38:41;;;;;;;2.20;2.00;;;;;;;;;;4957507;28;20434;-74
2022/08/01 09:41:07;;;;;;;1.83;1.80;;;;;;;;;;4957549;28;20478;-74
2022/08/01 09:43:33;;;;;;;2.40;2.40;;;;;;;;;;4957365;28;20278;-74
2022/08/01 09:46:00;;;;;;;2.67;2.57;;;;;;;;;;4957558;28;20919;-76
2022/08/01 09:48:27;;;;;;;2.23;2.23;;;;;;;;;;4957297;28;20427;-74
2022/08/01 09:50:53;;;;;;;2.30;2.20;;;;;;;;;;4972124;28;20963;-75
2022/08/01 09:53:20;;;;;;;2.73;2.63;;;;;;;;;;4957105;28;20493;-75
2022/08/01 09:55:46;;;;;;;2.10;2.10;;;;;;;;;;4957266;28;20481;-73
2022/08/01 09:58:12;;;;;;;2.20;2.10;;;;;;;;;;4957327;28;20962;-76
2022/08/01 10:00:39;;;;;;;8.90;3.00;;;;;;;;;;4957216;28;20422;-75
2022/08/01 10:03:24;;;;;;;2.30;2.30;;;;;;;;;;4956372;28;20427;-75
2022/08/01 10:05:51;;;;;;;2.67;2.47;;;;;;;;;;4957283;28;20427;-74
2022/08/01 10:08:18;;;;;;;5.80;2.20;;;;;;;;;;4957195;28;20530;-74
2022/08/01 10:11:04;;;;;;;4.73;2.70;;;;;;;;;;4957066;29;20775;-74
2022/08/01 10:13:30;;;;;;;1.93;1.83;;;;;;;;;;4956712;28;20406;-75
2022/08/01 10:15:56;;;;;;;5.20;2.20;;;;;;;;;;4957012;29;20419;-75
2022/08/01 10:18:22;;;;;;;2.67;2.57;;;;;;;;;;4956676;29;20480;-74
2022/08/01 10:20:48;;;;;;;2.23;2.20;;;;;;;;;;4956962;28;20410;-74
2022/08/01 10:23:15;;;;;;;2.80;2.70;;;;;;;;;;4956542;29;20493;-74
2022/08/01 10:25:43;;;;;;;2.47;2.47;;;;;;;;;;4956858;28;20423;-74
2022/08/01 10:28:15;;;;;;;2.80;2.80;;;;;;;;;;4957000;28;20447;-75
2022/08/01 10:30:42;;;;;;;4.77;3.50;;;;;;;;;;4956858;28;20426;-74
2022/08/01 10:33:08;;;;;;;4.20;3.03;;;;;;;;;;4956028;28;20427;-76
2022/08/01 10:35:34;;;;;;;6.20;2.37;;;;;;;;;;4956728;28;20435;-74
2022/08/01 10:38:01;;;;;;;2.47;2.47;;;;;;;;;;4955975;28;20489;-74
2022/08/01 10:40:27;;;;;;;2.73;2.63;;;;;;;;;;4956293;28;20427;-74
2022/08/01 10:42:53;;;;;;;4.00;3.13;;;;;;;;;;4956171;28;20525;-74
2022/08/01 10:45:19;;;;;;;2.93;2.57;;;;;;;;;;4956439;28;20426;-74
2022/08/01 10:47:45;;;;;;;2.90;2.67;;;;;;;;;;4956130;29;20427;-75
2022/08/01 10:50:17;;;;;;;2.20;2.10;;;;;;;;;;4956360;29;20430;-75
2022/08/01 10:53:03;;;;;;;2.50;1.90;;;;;;;;;;4956076;28;20426;-74
2022/08/01 10:55:29;;;;;;;2.70;2.13;;;;;;;;;;4956035;28;20461;-74
2022/08/01 10:57:55;;;;;;;2.70;2.60;;;;;;;;;;4956116;28;20866;-76
2022/08/01 11:00:22;;;;;;;2.73;2.63;;;;;;;;;;4956085;28;20458;-74
2022/08/01 11:03:00;;;;;;;18.80;2.70;;;;;;;;;;4959010;28;20186;-78
2022/08/01 11:05:26;;;;;;;2.03;2.03;;;;;;;;;;4965042;28;20773;-79
2022/08/01 11:07:53;;;;;;;4.00;2.67;;;;;;;;;;4974932;28;20937;-78
2022/08/01 11:10:30;;;;;;;3.13;2.20;;;;;;;;;;4975267;28;20444;-75
2022/08/01 11:12:56;;;;;;;11.13;2.60;;;;;;;;;;4971592;28;20465;-81
2022/08/01 11:15:27;;;;;;;3.03;2.50;;;;;;;;;;4974074;28;20484;-75
2022/08/01 11:17:53;;;;;;;2.40;2.30;;;;;;;;;;4973477;28;20482;-77
2022/08/01 11:20:20;;;;;;;2.47;2.37;;;;;;;;;;4974864;28;20426;-76
2022/08/01 11:23:01;;;;;;;2.50;2.43;;;;;;;;;;4973992;28;20501;-74
2022/08/01 11:25:36;;;;;;;2.47;2.37;;;;;;;;;;4974681;28;20481;-76
2022/08/01 11:28:25;;;;;;;2.10;2.00;;;;;;;;;;4974360;28;20448;-79
2022/08/01 11:30:54;;;;;;;2.20;2.10;;;;;;;;;;4974638;28;20418;-75
2022/08/01 11:33:44;;;;;;;2.60;2.53;;;;;;;;;;4973486;28;20474;-75
2022/08/01 11:36:10;;;;;;;6.47;2.90;;;;;;;;;;4974205;28;20450;-73
2022/08/01 11:38:41;;;;;;;1.97;1.97;;;;;;;;;;4973727;28;20793;-74
2022/08/01 11:41:10;;;;;;;2.23;2.20;;;;;;;;;;4974347;28;20561;-76
2022/08/01 11:43:55;;;;;;;2.67;2.43;;;;;;;;;;4972495;28;20426;-76
2022/08/01 11:46:40;;;;;;;5.07;2.50;;;;;;;;;;4974306;28;20492;-73
2022/08/01 11:49:25;;;;;;;2.30;2.10;;;;;;;;;;4973206;28;20488;-75
2022/08/01 11:52:22;;;;;;;2.20;2.20;;;;;;;;;;4973159;28;20524;-75
2022/08/01 11:54:49;;;;;;;4.73;2.43;;;;;;;;;;4965720;28;20474;-75
2022/08/01 11:57:19;;;;;;;2.40;2.30;;;;;;;;;;4973528;28;20540;-75
2022/08/01 11:59:48;;;;;;;3.80;2.90;;;;;;;;;;4974235;28;20437;-75
2022/08/01 12:02:17;;;;;;;1.90;1.90;;;;;;;;;;4973453;28;20954;-74
2022/08/01 12:04:50;;;;;;;4.30;2.23;;;;;;;;;;4973671;28;20509;-73
2022/08/01 12:07:17;;;;;;;4.40;4.00;;;;;;;;;;4974081;28;20957;-73
2022/08/01 12:09:43;;;;;;;2.93;2.70;;;;;;;;;;4988734;28;20436;-73
2022/08/01 12:12:10;;;;;;;1.93;1.83;;;;;;;;;;4968798;28;20923;-74
2022/08/01 12:14:36;;;;;;;2.37;2.37;;;;;;;;;;4954314;28;20418;-75
2022/08/01 12:17:02;;;;;;;2.60;2.30;;;;;;;;;;4954568;28;20902;-73
2022/08/01 12:19:28;;;;;;;2.50;2.50;;;;;;;;;;4954070;28;20465;-73
2022/08/01 12:22:07;;;;;;;3.80;2.20;;;;;;;;;;4969679;28;20525;-73
2022/08/01 12:24:37;;;;;;;1.60;1.60;;;;;;;;;;4973411;28;20425;-71
2022/08/01 12:27:03;;;;;;;2.10;2.10;;;;;;;;;;4973483;28;20434;-72
2022/08/01 12:29:40;;;;;;;1.90;1.90;;;;;;;;;;4973609;28;20414;-72
2022/08/01 12:32:21;;;;;;;2.30;2.30;;;;;;;;;;4973025;28;20444;-73
2022/08/01 12:34:47;;;;;;;2.00;2.00;;;;;;;;;;4964347;28;20524;-73
2022/08/01 12:37:13;;;;;;;3.03;2.73;;;;;;;;;;4973482;28;20469;-73
2022/08/01 12:39:39;;;;;;;2.97;1.87;;;;;;;;;;4973320;28;20422;-72
2022/08/01 12:42:07;;;;;;;2.00;2.00;;;;;;;;;;4973074;28;20528;-72
2022/08/01 12:44:33;;;;;;;2.33;2.23;;;;;;;;;;4973465;28;20418;-74
2022/08/01 12:47:00;;;;;;;3.40;2.43;;;;;;;;;;4973225;28;20492;-73
2022/08/01 12:49:27;;;;;;;2.27;2.17;;;;;;;;;;4973216;28;20425;-72
2022/08/01 12:51:54;;;;;;;2.40;2.20;;;;;;;;;;4972765;28;20963;-73
2022/08/01 12:54:20;;;;;;;3.27;2.33;;;;;;;;;;4973179;28;20469;-73
2022/08/01 12:56:46;;;;;;;2.60;2.60;;;;;;;;;;4973124;28;20488;-73
2022/08/01 12:59:25;;;;;;;2.27;2.27;;;;;;;;;;4973220;28;20425;-73
2022/08/01 13:01:52;;;;;;;2.00;1.90;;;;;;;;;;4973912;28;20488;-72
2022/08/01 13:04:18;;;;;;;2.97;2.87;;;;;;;;;;4976618;28;20512;-73
2022/08/01 13:06:44;;;;;;;2.43;2.30;;;;;;;;;;4977493;28;21046;-77
2022/08/01 13:09:12;;;;;;;2.20;2.10;;;;;;;;;;4976902;28;20989;-79
2022/08/01 13:11:38;;;;;;;2.57;2.57;;;;;;;;;;4977300;28;20426;-79
2022/08/01 13:14:04;;;;;;;2.50;2.30;;;;;;;;;;4977362;28;20406;-80
2022/08/01 13:16:30;;;;;;;3.70;2.37;;;;;;;;;;4977241;28;20456;-77
2022/08/01 13:18:56;;;;;;;2.77;2.57;;;;;;;;;;4976331;28;20930;-77
2022/08/01 13:21:24;;;;;;;5.17;2.90;;;;;;;;;;4977379;28;20406;-75
2022/08/01 13:24:07;;;;;;;2.70;2.70;;;;;;;;;;4975573;28;20441;-77
2022/08/01 13:26:49;;;;;;;2.83;2.73;;;;;;;;;;4975991;28;20410;-76
2022/08/01 13:29:20;;;;;;;2.80;2.70;;;;;;;;;;4974011;28;20449;-78
2022/08/01 13:31:46;;;;;;;2.50;2.43;;;;;;;;;;4991232;28;20430;-80
2022/08/01 13:34:12;;;;;;;2.63;2.30;;;;;;;;;;4976226;28;20500;-72
2022/08/01 13:36:38;;;;;;;3.13;3.00;;;;;;;;;;4976642;28;20532;-76
2022/08/01 13:41:50;;;;;;;2.00;2.00;;;;;;;;;;4976748;28;20496;-83
2022/08/01 13:44:16;;;;;;;2.43;2.43;;;;;;;;;;4975963;28;20934;-81
2022/08/01 13:46:43;;;;;;;2.80;2.80;;;;;;;;;;4976354;28;20430;-80
2022/08/01 13:49:10;;;;;;;3.80;2.30;;;;;;;;;;4975745;28;20423;-77
2022/08/01 13:51:36;;;;;;;6.30;2.93;;;;;;;;;;4979672;28;20428;-75
2022/08/01 13:54:02;;;;;;;3.13;2.50;;;;;;;;;;4976496;28;20442;-77
2022/08/01 13:56:28;;;;;;;2.47;2.43;;;;;;;;;;4976625;28;20784;-77
2022/08/01 13:58:55;;;;;;;2.10;2.10;;;;;;;;;;4975584;28;20425;-79
2022/08/01 14:01:21;;;;;;;2.60;2.50;;;;;;;;;;4976004;28;20565;-80
2022/08/01 14:03:47;;;;;;;2.20;2.20;;;;;;;;;;4975249;28;20520;-79
2022/08/01 14:06:15;;;;;;;2.93;2.83;;;;;;;;;;4975158;28;20462;-79
2022/08/01 14:08:41;;;;;;;2.40;2.30;;;;;;;;;;4975749;28;20453;-79
2022/08/01 14:11:07;;;;;;;3.43;3.13;;;;;;;;;;4976147;28;20449;-80
2022/08/01 14:13:33;;;;;;;7.93;2.60;;;;;;;;;;4975255;28;20422;-79
2022/08/01 14:15:59;;;;;;;2.27;2.27;;;;;;;;;;4976023;28;20211;-79
2022/08/01 14:18:26;;;;;;;2.20;2.10;;;;;;;;;;4975521;28;20997;-78
2022/08/01 14:20:52;;;;;;;2.97;2.27;;;;;;;;;;4975392;28;20864;-73
2022/08/01 14:23:18;;;;;;;3.67;2.40;;;;;;;;;;4975359;28;20426;-79
2022/08/01 14:25:44;;;;;;;5.43;3.03;;;;;;;;;;4975272;28;20457;-78
2022/08/01 14:28:10;;;;;;;2.77;2.43;;;;;;;;;;4975716;28;20284;-73
2022/08/01 14:30:36;;;;;;;2.40;2.30;;;;;;;;;;4975610;28;20418;-77
2022/08/01 14:33:02;;;;;;;2.57;2.57;;;;;;;;;;4974804;28;20421;-73
2022/08/01 14:35:28;;;;;;;2.57;2.57;;;;;;;;;;4975322;28;20517;-75
2022/08/01 14:37:54;;;;;;;4.33;2.80;;;;;;;;;;4975571;28;20588;-73
2022/08/01 14:40:20;;;;;;;2.87;2.40;;;;;;;;;;4975099;28;20515;-72
2022/08/01 14:42:46;;;;;;;2.20;2.20;;;;;;;;;;4975394;28;20903;-72
2022/08/01 14:45:13;;;;;;;5.03;2.13;;;;;;;;;;4974904;28;20977;-79
2022/08/01 14:47:40;;;;;;;14.67;3.17;;;;;;;;;;4974951;28;20784;-73
2022/08/01 14:50:08;;;;;;;3.23;3.03;;;;;;;;;;4975100;28;20453;-73